Terminal Aerodrome Forecast
Issued by NWS

Home | Current Version | Previous Version | Graphics & Text | Print | Product List | Glossary Off
Versions: 1 2 3 4 5 6 7 8 9 10 11 12 13 14 15 16 17 18 19

000
FTUS43 KBIS 281100
TAFJMS
TAF
KJMS 281129Z 2812/2912 18007KT 1/4SM FG OVC002
      TEMPO 2817/2820 32011KT 2SM BR OVC004
     FM282000 33020G27KT P6SM VCSH BKN004 OVC007
     FM290000 33022G33KT P6SM -SHSN BKN006 OVC011=

USA.gov is the U.S. government's official web portal to all federal, state and local government web resources and services.